Nearby METAR Reports

 

KSJC - San Jose, California, USA
Distance from station: NE 14km
Updated: 04/04/2020 21:53
Mostly cloudy
Mostly cloudy
 Wind from SSE
Wind: SSE 19 km/h
Temperature: 14°C
Dew Point: 6°C
Humidity: 59%
Barometer: 1012.5 hPa
Clouds: Mostly cloudy
Visibility: 16 km
Cloud details: Few Clouds 244 m
Mostly cloudy 1158 m
Mostly cloudy 3048 m
2020/04/04 19:53 KSJC 041953Z 15010KT 10SM FEW008 BKN038 BKN100 14/06 A2990 RMK AO2 RAB40E49 SLP126 P0000 T01440056 $
KNUQ - Moffett Nas/Mtn, California, USA
Distance from station: N 14km
Updated: 21/11/2019 18:56
NOT Current

 
Barometer: 1011.2 hPa
2019/11/21 16:56 KNUQ 211656Z AUTO A2986 RMK AO2 SLP116 PWINO $
 
KPAO - Palo Alto, California, USA
Distance from station: NNW 23km
Updated: 04/04/2020 19:47
NOT Current
Overcast
Overcast
 Wind from SSE
Wind: SSE 19 km/h
Temperature: 12°C
Dew Point: 5°C
Humidity: 63%
Barometer: 1013.9 hPa
Clouds: Overcast
Visibility: 16 km
Cloud details: Mostly cloudy 914 m
Overcast 2591 m
2020/04/04 17:47 KPAO 041747Z 15010KT 10SM BKN030 OVC085 12/05 A2994
KRHV - San Jose/Reid, California, USA
Distance from station: ENE 19km
Updated: 04/04/2020 21:47
Overcast
Overcast
 Wind from W
Wind: W 15 km/h
Temperature: 14°C
Dew Point: 7°C
Humidity: 63%
Barometer: 1013.2 hPa
Clouds: Overcast
Visibility: 16 km
Cloud details: Mostly cloudy 1219 m
Overcast 3048 m
2020/04/04 19:47 KRHV 041947Z 26008KT 10SM BKN040 OVC100 14/07 A2992
 
KOAK - Oakland, California, USA
Distance from station: NNW 50km
Updated: 04/04/2020 21:53
Overcast
Overcast
 Wind from SSE
Wind: SSE 30 km/h
Temperature: 14°C
Dew Point: 8°C
Humidity: 67%
Barometer: 1012.2 hPa
Clouds: Overcast
Visibility: 16 km
Cloud details: Overcast 549 m
2020/04/04 19:53 KOAK 041953Z 16016KT 10SM OVC018 14/08 A2989 RMK AO2 RAB05E19 SLP122 P0000 T01390078
KSQL - San Carlos Airpo, California, USA
Distance from station: NW 34km
Updated: 04/04/2020 21:47
Overcast
Overcast
 Wind from SSE
Wind: SSE 15 km/h
Temperature: 13°C
Dew Point: 10°C
Humidity: 82%
Barometer: 1012.9 hPa
Clouds: Overcast
Visibility: 16 km
Cloud details: Mostly cloudy 792 m
Overcast 975 m
2020/04/04 19:47 KSQL 041947Z 15008KT 10SM BKN026 OVC032 13/10 A2991
 
KSFO - San Francisco, California, USA
Distance from station: NW 49km
Updated: 04/04/2020 21:56
Overcast
Overcast
 Wind from S
Wind: S 24 km/h, Gust: 35 km/h
Temperature: 13°C
Dew Point: 10°C
Humidity: 82%
Barometer: 1011.9 hPa
Clouds: Overcast
Visibility: 11 km
Cloud details: Few Clouds 305 m
Mostly cloudy 457 m
Overcast 853 m
2020/04/04 19:56 KSFO 041956Z 17013G19KT 7SM FEW010 BKN015 OVC028 13/10 A2988 RMK AO2 SLP118 T01330100 $
KE16 - San Martin, California, USA
Distance from station: ESE 43km
Updated: 14/11/2019 11:35
NOT Current
Overcast
Overcast
 Wind from SE
Wind: SE 11 km/h
Temperature: 12°C
Dew Point: 10°C
Humidity: 88%
Barometer: 1017.6 hPa
Clouds: Overcast
Visibility: 16 km
Cloud details: Overcast 427 m
2019/11/14 09:35 KE16 140935Z AUTO 13006KT 10SM OVC014 12/10 A3005 RMK AO2
 
KWVI - Watsonville, California, USA
Distance from station: SSE 44km
Updated: 04/04/2020 21:53
Overcast
Overcast
 Wind from SSW
Wind: SSW 15 km/h
Temperature: 14°C
Dew Point: 9°C
Humidity: 72%
Barometer: 1014.2 hPa
Clouds: Overcast
Visibility: 16 km
Cloud details: Mostly cloudy 549 m
Overcast 762 m
2020/04/04 19:53 KWVI 041953Z AUTO 21008KT 10SM BKN018 OVC025 14/09 A2995 RMK AO2 SLP141 T01390094
KHAF - Half Moon Bay, California, USA
Distance from station: WNW 50km
Updated: 04/04/2020 22:20
Mist, Overcast
Mist, Overcast
 Wind from S
Wind: S 31 km/h, Gust: 43 km/h
Temperature: 11°C
Dew Point: 10°C
Humidity: 94%
Barometer: 1012.5 hPa
Summary: Mist
Clouds: Overcast
Visibility: 2 km
Cloud details: Mostly cloudy 152 m
Overcast 396 m
2020/04/04 20:20 KHAF 042020Z AUTO 17017G23KT 1 1/4SM BR BKN005 OVC013 11/10 A2990 RMK AO2
 
KHWD - Hayward, California, USA
Distance from station: N 44km
Updated: 04/04/2020 21:54
Overcast
Overcast
 Wind from SSE
Wind: SSE 20 km/h
Temperature: 13°C
Dew Point: 7°C
Humidity: 67%
Barometer: 1012.2 hPa
Clouds: Overcast
Visibility: 16 km
Cloud details: Overcast 762 m
2020/04/04 19:54 KHWD 041954Z 16011KT 10SM OVC025 13/07 A2989 RMK AO2 RAB21E53 SLP130 P0000 T01330072
KLVK - Livermore, California, USA
Distance from station: NNE 51km
Updated: 04/04/2020 21:53
Light rain, Overcast
Light rain, Overcast
 Wind from SSW
Wind: SSW 22 km/h, Gust: 33 km/h
Temperature: 13°C
Dew Point: 8°C
Humidity: 72%
Barometer: 1011.9 hPa
Summary: Light rain
Clouds: Overcast
Visibility: 16 km
Cloud details: Partly cloudy 1463 m
Overcast 1829 m
2020/04/04 19:53 KLVK 041953Z 21012G18KT 10SM -RA SCT048 OVC060 13/08 A2988 RMK AO2 RAE1856B22E35B51 SLP116 P0000 T01280078